Time;durP1;ratioP1;P1;durP2;ratioP2;P2;SDS_P1;SDS_P2;PMS_P1;PMS_P2;Temp;Humidity;BMP_temperature;BMP_pressure;BME280_temperature;BME280_humidity;BME280_pressure;Samples;Min_cycle;Max_cycle;Signal;HPM_P1;HPM_P2
2022/06/25 00:02:05;;;;;;;7.82;5.03;;;;;;;18.92;100.00;100747.13;5000591;28;20052;-82
2022/06/25 00:07:15;;;;;;;8.65;5.45;;;;;;;18.89;100.00;100744.69;5033073;28;20063;-83
2022/06/25 00:09:41;;;;;;;7.22;5.05;;;;;;;18.91;100.00;100741.91;5032536;28;20456;-83
2022/06/25 00:14:52;;;;;;;8.85;5.32;;;;;;;18.87;100.00;100752.00;5032887;28;20088;-84
2022/06/25 00:17:19;;;;;;;6.68;4.80;;;;;;;18.84;100.00;100753.09;5025879;28;20037;-82
2022/06/25 00:19:45;;;;;;;7.35;4.90;;;;;;;18.82;100.00;100755.06;5026299;28;20103;-82
2022/06/25 00:22:10;;;;;;;8.82;5.03;;;;;;;18.78;100.00;100755.44;5025605;28;20029;-82
2022/06/25 00:24:36;;;;;;;8.25;4.80;;;;;;;18.76;100.00;100754.69;5008985;28;20565;-82
2022/06/25 00:27:01;;;;;;;7.57;5.00;;;;;;;18.77;100.00;100756.41;5042969;28;20216;-82
2022/06/25 00:29:26;;;;;;;6.22;4.57;;;;;;;18.78;100.00;100756.28;5025886;28;20113;-82
2022/06/25 00:31:52;;;;;;;6.88;4.40;;;;;;;18.76;100.00;100763.63;5042187;28;20092;-82
2022/06/25 00:34:17;;;;;;;7.18;4.90;;;;;;;18.74;100.00;100767.41;5035977;28;20421;-84
2022/06/25 00:36:42;;;;;;;9.30;4.60;;;;;;;18.71;100.00;100765.81;5015761;28;20069;-84
2022/06/25 00:39:09;;;;;;;7.20;4.40;;;;;;;18.71;100.00;100760.44;5031868;28;20405;-84
2022/06/25 00:41:34;;;;;;;6.72;4.28;;;;;;;18.72;100.00;100756.81;4998908;28;20037;-83
2022/06/25 00:44:06;;;;;;;8.32;5.05;;;;;;;18.68;100.00;100749.94;5016861;28;20029;-90
2022/06/25 00:46:32;;;;;;;7.30;4.68;;;;;;;18.67;100.00;100745.59;5032306;28;20048;-91
2022/06/25 00:48:57;;;;;;;7.15;4.63;;;;;;;18.65;100.00;100745.69;5016231;28;20481;-88
2022/06/25 00:51:26;;;;;;;8.40;5.13;;;;;;;18.62;100.00;100753.13;5016418;28;20036;-89
2022/06/25 00:53:59;;;;;;;7.32;5.45;;;;;;;18.60;100.00;100755.09;5033250;28;20029;-89
2022/06/25 00:56:27;;;;;;;8.07;5.20;;;;;;;18.56;100.00;100753.66;5032841;28;20041;-89
2022/06/25 00:58:58;;;;;;;9.65;5.97;;;;;;;18.51;100.00;100746.78;5032762;28;20041;-88
2022/06/25 01:01:23;;;;;;;7.20;5.83;;;;;;;18.47;100.00;100755.22;5032339;28;20037;-90
2022/06/25 01:03:49;;;;;;;7.40;5.60;;;;;;;18.42;100.00;100760.94;5033033;28;20037;-90
2022/06/25 01:06:14;;;;;;;8.05;5.43;;;;;;;18.42;100.00;100768.16;5037184;28;20048;-90
2022/06/25 01:08:40;;;;;;;8.90;5.40;;;;;;;18.39;100.00;100769.25;5017504;28;20124;-90
2022/06/25 01:11:07;;;;;;;9.35;5.63;;;;;;;18.38;100.00;100761.31;5034264;28;20435;-91
2022/06/25 01:13:33;;;;;;;9.32;5.25;;;;;;;18.39;100.00;100779.09;5042719;28;20037;-91
2022/06/25 01:15:59;;;;;;;7.15;5.30;;;;;;;18.37;100.00;100773.84;5049709;28;20417;-88
2022/06/25 01:18:24;;;;;;;7.38;5.10;;;;;;;18.33;100.00;100775.91;5033733;28;20018;-86
2022/06/25 01:20:50;;;;;;;10.07;5.30;;;;;;;18.30;100.00;100784.22;5002665;28;20500;-87
2022/06/25 01:23:15;;;;;;;10.02;6.10;;;;;;;18.29;100.00;100787.03;5027348;28;20033;-88
2022/06/25 01:25:41;;;;;;;8.95;5.30;;;;;;;18.26;100.00;100788.13;5033606;28;20030;-89
2022/06/25 01:28:08;;;;;;;10.13;5.30;;;;;;;18.25;100.00;100789.09;5015532;28;20041;-89
2022/06/25 01:30:33;;;;;;;13.02;5.78;;;;;;;18.22;100.00;100794.66;5036178;28;20071;-91
2022/06/25 01:32:59;;;;;;;10.40;6.07;;;;;;;18.18;100.00;100794.09;5032811;28;20026;-90
2022/06/25 01:35:25;;;;;;;9.80;5.70;;;;;;;18.19;100.00;100800.28;4999231;28;20032;-89
2022/06/25 01:37:50;;;;;;;9.20;5.30;;;;;;;18.17;100.00;100803.09;5032288;28;20033;-90
2022/06/25 01:40:17;;;;;;;10.90;5.68;;;;;;;18.16;100.00;100801.38;5016330;28;20107;-91
2022/06/25 01:43:00;;;;;;;9.50;5.40;;;;;;;18.14;100.00;100800.63;5015577;28;20029;-90
2022/06/25 01:45:34;;;;;;;11.05;5.80;;;;;;;18.13;100.00;100806.97;5018862;28;20037;-90
2022/06/25 01:48:01;;;;;;;9.55;5.72;;;;;;;18.11;100.00;100800.03;5035711;28;20037;-90
2022/06/25 01:50:28;;;;;;;12.25;5.78;;;;;;;18.09;100.00;100801.97;5035774;28;20029;-90
2022/06/25 01:52:53;;;;;;;13.27;5.68;;;;;;;18.08;100.00;100805.63;5035423;28;20025;-90
2022/06/25 01:55:20;;;;;;;10.85;6.05;;;;;;;18.07;100.00;100809.25;5035958;28;20083;-90
2022/06/25 01:57:46;;;;;;;10.52;6.20;;;;;;;18.03;100.00;100808.66;5035933;28;20045;-88
2022/06/25 02:00:23;;;;;;;10.18;5.88;;;;;;;18.03;100.00;100816.72;5018879;28;20370;-89
2022/06/25 02:02:50;;;;;;;11.68;5.85;;;;;;;18.00;100.00;100820.44;5037302;28;20115;-90
2022/06/25 02:05:17;;;;;;;13.38;6.63;;;;;;;17.97;100.00;100812.66;5035232;28;20104;-90
2022/06/25 02:07:43;;;;;;;13.57;6.45;;;;;;;17.97;100.00;100823.38;5035531;28;20032;-90
2022/06/25 02:10:10;;;;;;;13.10;6.70;;;;;;;17.98;100.00;100825.09;5035544;28;20029;-90
2022/06/25 02:12:35;;;;;;;13.43;6.55;;;;;;;17.99;100.00;100828.59;5035217;28;20542;-91
2022/06/25 02:15:04;;;;;;;11.63;6.22;;;;;;;17.98;100.00;100835.81;5019067;28;20030;-90
2022/06/25 02:17:30;;;;;;;14.35;5.80;;;;;;;17.95;100.00;100832.50;5035205;28;20053;-90
2022/06/25 02:19:55;;;;;;;12.57;5.90;;;;;;;17.94;100.00;100834.34;5035495;28;20029;-91
2022/06/25 02:22:21;;;;;;;11.75;5.50;;;;;;;17.95;100.00;100830.66;5018970;28;20120;-89
2022/06/25 02:24:46;;;;;;;9.60;5.78;;;;;;;17.94;100.00;100837.00;5035135;28;20052;-91
2022/06/25 02:27:12;;;;;;;11.68;5.60;;;;;;;17.93;100.00;100832.63;5019309;28;20029;-91
2022/06/25 02:29:37;;;;;;;11.48;5.75;;;;;;;17.92;100.00;100833.56;5019353;28;20545;-89
2022/06/25 02:32:04;;;;;;;12.07;5.78;;;;;;;17.91;100.00;100831.00;5035410;28;20025;-90
2022/06/25 02:34:30;;;;;;;12.77;5.40;;;;;;;17.90;100.00;100834.66;5035220;28;20079;-90
2022/06/25 02:36:55;;;;;;;10.18;5.20;;;;;;;17.91;100.00;100841.72;5035638;28;20025;-90
2022/06/25 02:39:21;;;;;;;8.88;4.93;;;;;;;17.92;100.00;100824.69;5036239;28;20047;-89
2022/06/25 02:41:46;;;;;;;12.68;5.03;;;;;;;17.93;100.00;100837.06;5022730;28;20026;-89
2022/06/25 02:44:12;;;;;;;9.77;4.90;;;;;;;17.91;100.00;100842.56;5037727;28;20551;-90
2022/06/25 02:46:37;;;;;;;10.50;4.80;;;;;;;17.90;100.00;100842.69;5038342;28;20126;-90
2022/06/25 02:49:03;;;;;;;9.15;4.68;;;;;;;17.87;100.00;100851.81;5036783;28;20036;-90
2022/06/25 02:51:29;;;;;;;9.75;4.47;;;;;;;17.85;100.00;100854.59;5020570;28;20033;-90
2022/06/25 02:53:55;;;;;;;7.38;4.15;;;;;;;17.86;100.00;100850.09;5036580;28;20045;-89
2022/06/25 02:59:06;;;;;;;9.82;4.43;;;;;;;17.88;100.00;100861.56;5021247;28;20409;-91
2022/06/25 03:01:32;;;;;;;7.70;3.95;;;;;;;17.89;100.00;100868.63;5034689;28;20041;-90
2022/06/25 03:03:58;;;;;;;7.85;3.90;;;;;;;17.87;100.00;100859.00;5035942;28;20026;-90
2022/06/25 03:06:24;;;;;;;12.20;4.18;;;;;;;17.86;100.00;100855.44;5034508;28;20103;-89
2022/06/25 03:08:50;;;;;;;9.23;3.92;;;;;;;17.88;100.00;100863.34;5018442;28;20512;-88
2022/06/25 03:11:16;;;;;;;8.25;4.20;;;;;;;17.91;100.00;100865.81;5018334;28;20439;-89
2022/06/25 03:13:42;;;;;;;9.50;4.00;;;;;;;17.93;100.00;100861.19;5025850;28;20036;-90
2022/06/25 03:16:08;;;;;;;6.55;3.67;;;;;;;17.96;100.00;100869.88;5034180;28;20017;-90
2022/06/25 03:18:35;;;;;;;6.13;3.40;;;;;;;17.96;100.00;100869.03;5014523;28;20068;-91
2022/06/25 03:21:01;;;;;;;9.15;3.80;;;;;;;17.98;100.00;100877.78;5005002;28;20038;-91
2022/06/25 03:23:27;;;;;;;9.23;3.90;;;;;;;18.00;100.00;100874.03;5015123;28;20021;-90
2022/06/25 03:25:53;;;;;;;9.93;3.75;;;;;;;18.07;100.00;100873.56;5034045;28;20048;-90
2022/06/25 03:28:19;;;;;;;13.63;4.13;;;;;;;18.10;100.00;100874.19;5035423;28;20385;-90
2022/06/25 03:30:45;;;;;;;6.45;3.60;;;;;;;18.13;100.00;100871.31;5017304;28;20040;-90
2022/06/25 03:33:11;;;;;;;7.25;3.40;;;;;;;18.16;100.00;100873.72;5035029;28;20037;-90
2022/06/25 03:35:37;;;;;;;6.57;3.55;;;;;;;18.18;100.00;100881.66;5017237;28;20122;-90
2022/06/25 03:38:02;;;;;;;7.90;3.63;;;;;;;18.22;100.00;100877.75;5017202;28;20536;-91
2022/06/25 03:40:27;;;;;;;10.65;3.83;;;;;;;18.20;100.00;100890.44;5017157;28;20381;-90
2022/06/25 03:42:53;;;;;;;8.82;3.90;;;;;;;18.26;100.00;100887.28;5000936;28;20651;-89
2022/06/25 03:45:19;;;;;;;8.88;3.90;;;;;;;18.31;100.00;100895.84;5017122;28;20385;-88
2022/06/25 03:47:49;;;;;;;7.75;3.88;;;;;;;18.33;100.00;100893.03;5034295;28;20033;-86
2022/06/25 03:50:16;;;;;;;8.00;3.53;;;;;;;18.33;100.00;100898.41;5009975;28;20069;-89
2022/06/25 03:52:42;;;;;;;8.65;4.05;;;;;;;18.37;100.00;100896.34;5034849;28;20032;-86
2022/06/25 03:55:08;;;;;;;9.95;4.28;;;;;;;18.39;100.00;100905.97;5017410;28;20022;-89
2022/06/25 03:57:35;;;;;;;10.68;4.22;;;;;;;18.38;100.00;100895.38;5032961;28;20052;-89
2022/06/25 04:00:00;;;;;;;8.80;4.25;;;;;;;18.40;100.00;100906.81;5013797;28;20100;-90
2022/06/25 04:02:26;;;;;;;10.35;4.50;;;;;;;18.45;100.00;100913.53;4996912;28;20030;-89
2022/06/25 04:04:52;;;;;;;8.80;4.15;;;;;;;18.48;100.00;100901.72;5013390;28;20478;-89
2022/06/25 04:07:17;;;;;;;8.07;3.85;;;;;;;18.53;100.00;100904.91;5025929;28;20035;-89
2022/06/25 04:09:42;;;;;;;9.88;3.88;;;;;;;18.48;100.00;100907.94;5032036;28;20062;-89
2022/06/25 04:12:08;;;;;;;14.82;4.25;;;;;;;18.48;100.00;100918.66;5016505;28;20034;-89
2022/06/25 04:14:33;;;;;;;8.75;3.90;;;;;;;18.44;100.00;100916.31;5000067;28;20033;-89
2022/06/25 04:17:00;;;;;;;7.20;3.60;;;;;;;18.45;100.00;100918.03;4999865;28;20032;-90
2022/06/25 04:19:25;;;;;;;8.00;3.30;;;;;;;18.45;100.00;100913.53;5034245;28;20040;-90
2022/06/25 04:21:51;;;;;;;8.02;3.40;;;;;;;18.47;100.00;100913.41;5016235;28;20350;-89
2022/06/25 04:24:17;;;;;;;5.40;3.20;;;;;;;18.46;100.00;100914.38;5016761;28;20041;-90
2022/06/25 04:26:43;;;;;;;7.47;2.88;;;;;;;18.42;100.00;100915.59;5016309;28;20032;-90
2022/06/25 04:29:08;;;;;;;8.82;3.42;;;;;;;18.50;100.00;100915.84;5016394;28;20037;-90
2022/06/25 04:31:38;;;;;;;8.07;3.38;;;;;;;18.50;100.00;100922.09;5016356;28;20029;-92
2022/06/25 04:34:04;;;;;;;7.88;3.28;;;;;;;18.51;100.00;100923.78;5017149;28;20048;-90
2022/06/25 04:36:30;;;;;;;7.28;3.03;;;;;;;18.50;100.00;100919.41;5032929;28;20489;-90
2022/06/25 04:38:56;;;;;;;8.10;3.20;;;;;;;18.46;100.00;100925.13;5032686;28;20076;-90
2022/06/25 04:41:22;;;;;;;6.07;2.90;;;;;;;18.48;100.00;100923.19;5032377;28;20037;-91
2022/06/25 04:43:48;;;;;;;4.97;2.50;;;;;;;18.43;100.00;100926.22;5017247;28;20045;-90
2022/06/25 04:46:13;;;;;;;6.30;2.85;;;;;;;18.42;100.00;100927.16;5015992;28;20080;-90
2022/06/25 04:48:39;;;;;;;6.00;2.75;;;;;;;18.40;100.00;100936.31;5016192;28;20493;-89
2022/06/25 04:51:06;;;;;;;5.38;2.60;;;;;;;18.39;100.00;100940.81;5011041;28;20041;-89
2022/06/25 04:53:32;;;;;;;8.68;3.00;;;;;;;18.40;100.00;100945.22;5000264;28;20062;-90
2022/06/25 04:55:58;;;;;;;7.25;2.95;;;;;;;18.45;100.00;100942.16;5031997;28;20030;-90
2022/06/25 04:58:23;;;;;;;6.13;2.65;;;;;;;18.51;100.00;100944.38;5016991;28;20049;-91
2022/06/25 05:00:49;;;;;;;6.10;3.10;;;;;;;18.58;100.00;100947.44;5016731;28;20037;-87
2022/06/25 05:03:14;;;;;;;9.77;2.78;;;;;;;18.63;100.00;100956.84;5037569;28;20060;-90
2022/06/25 05:05:40;;;;;;;5.22;2.67;;;;;;;18.73;100.00;100958.81;5016811;28;20029;-89
2022/06/25 05:08:05;;;;;;;5.28;2.90;;;;;;;18.84;100.00;100959.69;5032917;28;20026;-90
2022/06/25 05:10:31;;;;;;;6.43;2.70;;;;;;;18.92;100.00;100952.91;5000049;28;20543;-91
2022/06/25 05:13:29;;;;;;;8.43;3.10;;;;;;;18.97;100.00;100954.25;5032665;28;20030;-90
2022/06/25 05:15:48;;;;;;;;;;;;;;;19.06;100.00;100955.34;5031016;28;20485;-89
2022/06/25 05:18:13;;;;;;;7.18;2.80;;;;;;;19.12;100.00;100956.72;5032450;28;20265;-90
2022/06/25 05:20:43;;;;;;;6.40;3.15;;;;;;;19.26;100.00;100960.97;5034550;28;20033;-89
2022/06/25 05:23:10;;;;;;;8.55;3.10;;;;;;;19.45;100.00;100961.22;5051490;28;20022;-89
2022/06/25 05:25:35;;;;;;;6.82;2.70;;;;;;;19.76;99.48;100965.94;5035694;28;20025;-91
2022/06/25 05:28:02;;;;;;;6.70;3.00;;;;;;;19.91;96.59;100971.88;5036166;28;20028;-89
2022/06/25 05:30:27;;;;;;;6.05;3.00;;;;;;;19.91;95.58;100971.88;5035902;28;20029;-90
2022/06/25 05:32:53;;;;;;;5.53;2.78;;;;;;;20.00;96.00;100971.16;5035894;28;20033;-90
2022/06/25 05:35:19;;;;;;;7.40;2.75;;;;;;;19.98;95.29;100971.25;5019456;28;20025;-89
2022/06/25 05:37:44;;;;;;;6.93;2.95;;;;;;;19.94;95.88;100985.09;5036622;28;20481;-91
2022/06/25 05:40:11;;;;;;;12.02;3.30;;;;;;;19.88;96.18;100989.13;5019702;28;20033;-90
2022/06/25 05:42:36;;;;;;;9.52;3.35;;;;;;;19.74;95.54;100989.38;5019806;28;20549;-92
2022/06/25 05:45:03;;;;;;;8.80;3.47;;;;;;;19.62;97.20;100993.91;5027481;28;20064;-91
2022/06/25 05:47:28;;;;;;;4.75;2.90;;;;;;;19.58;97.68;100985.25;5019971;28;20048;-90
2022/06/25 05:49:54;;;;;;;9.63;3.28;;;;;;;19.69;96.95;100984.34;5035916;28;20026;-90
2022/06/25 05:52:19;;;;;;;6.97;2.97;;;;;;;19.73;97.06;100995.72;5003098;28;20112;-91
2022/06/25 05:54:46;;;;;;;5.10;2.90;;;;;;;19.91;96.28;100998.75;5035700;28;20485;-90
2022/06/25 05:57:11;;;;;;;9.07;3.33;;;;;;;20.01;95.48;100993.50;5019647;28;20580;-89
2022/06/25 05:59:37;;;;;;;4.72;2.80;;;;;;;20.15;94.95;100990.50;5003207;28;20064;-89
2022/06/25 06:02:04;;;;;;;6.50;2.80;;;;;;;20.37;93.57;100981.50;5002957;28;20096;-90
2022/06/25 06:04:29;;;;;;;6.82;2.90;;;;;;;20.55;92.58;100994.38;5016219;28;20034;-89
2022/06/25 06:06:55;;;;;;;5.70;2.90;;;;;;;20.45;92.46;100997.00;4984022;28;20362;-89
2022/06/25 06:09:20;;;;;;;6.97;3.00;;;;;;;20.35;92.77;100990.69;5003002;28;20033;-89
2022/06/25 06:11:46;;;;;;;6.63;2.60;;;;;;;20.41;93.84;100998.22;5020052;28;20371;-90
2022/06/25 06:14:11;;;;;;;8.10;3.00;;;;;;;20.63;91.88;101011.56;5008849;28;20033;-87
2022/06/25 06:16:37;;;;;;;7.13;2.80;;;;;;;20.85;91.72;101008.94;5045490;28;20513;-88
2022/06/25 06:19:03;;;;;;;4.75;2.40;;;;;;;21.01;89.56;101020.09;5042598;28;20055;-90
2022/06/25 06:21:29;;;;;;;4.38;2.30;;;;;;;20.99;89.38;101016.66;5042813;28;20042;-88
2022/06/25 06:23:54;;;;;;;5.45;2.30;;;;;;;20.92;89.80;101016.34;5038965;28;20038;-90
2022/06/25 06:26:20;;;;;;;5.78;2.40;;;;;;;20.75;90.34;101020.47;5002361;28;20033;-90
2022/06/25 06:28:45;;;;;;;5.03;2.58;;;;;;;20.75;90.73;101030.38;5015312;28;20072;-90
2022/06/25 06:31:11;;;;;;;6.47;2.83;;;;;;;20.76;90.54;101027.56;5015570;28;20117;-90
2022/06/25 06:33:36;;;;;;;7.90;2.95;;;;;;;20.83;89.80;101035.13;5030285;28;20036;-90
2022/06/25 06:36:02;;;;;;;9.05;3.38;;;;;;;20.73;91.09;101030.53;5018981;28;20053;-85
2022/06/25 06:38:28;;;;;;;5.32;2.90;;;;;;;20.46;91.92;101033.66;5033474;28;20029;-78
2022/06/25 06:40:53;;;;;;;4.32;2.70;;;;;;;20.35;91.69;101037.25;5034741;28;20553;-78
2022/06/25 06:43:18;;;;;;;6.47;2.67;;;;;;;20.28;91.42;101046.81;5033616;28;20033;-78
2022/06/25 06:45:44;;;;;;;5.00;2.53;;;;;;;20.16;92.48;101029.84;5027388;28;20116;-78
2022/06/25 06:48:09;;;;;;;6.32;2.50;;;;;;;20.17;92.27;101036.09;5016740;28;20079;-77
2022/06/25 06:50:35;;;;;;;4.03;2.30;;;;;;;20.15;92.66;101041.59;5034089;28;20036;-76
2022/06/25 06:53:00;;;;;;;5.75;2.45;;;;;;;20.12;92.78;101045.38;5030791;28;20412;-77
2022/06/25 06:55:26;;;;;;;4.80;2.30;;;;;;;19.95;94.75;101052.16;5032992;28;20028;-77
2022/06/25 06:57:51;;;;;;;7.70;2.45;;;;;;;19.99;93.51;101060.81;5000320;28;20060;-75
2022/06/25 07:00:19;;;;;;;4.30;2.40;;;;;;;19.96;94.42;101056.56;5016447;28;20041;-77
2022/06/25 07:02:45;;;;;;;9.23;2.58;;;;;;;19.97;93.82;101060.94;5016549;28;20034;-77
2022/06/25 07:05:10;;;;;;;5.97;2.33;;;;;;;19.92;94.43;101063.16;5033130;28;20104;-76
2022/06/25 07:07:36;;;;;;;5.28;2.60;;;;;;;19.98;94.12;101067.16;5015777;28;20124;-77
2022/06/25 07:10:02;;;;;;;4.38;2.40;;;;;;;19.97;93.92;101065.47;5000353;28;20038;-77
2022/06/25 07:12:27;;;;;;;4.47;2.83;;;;;;;19.76;93.65;101063.50;5034087;28;20044;-77
2022/06/25 07:14:52;;;;;;;6.65;2.42;;;;;;;19.71;94.49;101063.00;5000426;28;20036;-77
2022/06/25 07:17:18;;;;;;;4.90;2.53;;;;;;;19.60;95.48;101071.94;5034014;28;20026;-77
2022/06/25 07:19:43;;;;;;;8.05;2.70;;;;;;;19.58;96.59;101064.97;5018173;28;20033;-77
2022/06/25 07:22:10;;;;;;;5.22;2.60;;;;;;;19.57;96.38;101066.78;5030963;28;20039;-78
2022/06/25 07:24:35;;;;;;;6.80;3.85;;;;;;;19.51;95.96;101067.28;5036945;28;20116;-78
2022/06/25 07:27:01;;;;;;;6.38;2.35;;;;;;;19.60;95.97;101069.25;5030269;28;20049;-78
2022/06/25 07:29:26;;;;;;;5.32;2.78;;;;;;;19.59;95.73;101077.41;5053921;28;20041;-76
2022/06/25 07:31:52;;;;;;;4.78;2.78;;;;;;;19.57;96.19;101077.53;5023893;28;20017;-77
2022/06/25 07:34:17;;;;;;;7.43;3.28;;;;;;;19.61;95.84;101089.75;5051615;28;20029;-77
2022/06/25 07:36:43;;;;;;;4.88;3.13;;;;;;;19.61;95.78;101089.75;5025702;28;20112;-78
2022/06/25 07:39:08;;;;;;;6.30;3.13;;;;;;;19.53;97.24;101094.00;5019970;28;20033;-78
2022/06/25 07:41:34;;;;;;;7.10;3.08;;;;;;;19.53;96.42;101089.50;5034820;28;20033;-79
2022/06/25 07:43:59;;;;;;;4.70;3.05;;;;;;;19.44;96.51;101088.41;5003615;28;20034;-76
2022/06/25 07:46:25;;;;;;;4.20;2.65;;;;;;;19.49;96.52;101088.91;5038792;28;20048;-77
2022/06/25 07:48:50;;;;;;;5.43;2.72;;;;;;;19.61;96.91;101080.84;5030119;28;20124;-77
2022/06/25 07:53:59;;;;;;;8.73;3.05;;;;;;;19.94;94.52;101082.69;5008439;28;20106;-78
2022/06/25 07:56:25;;;;;;;4.53;2.40;;;;;;;20.05;93.44;101089.91;5014951;28;20585;-78
2022/06/25 07:58:50;;;;;;;6.60;2.85;;;;;;;20.22;92.13;101093.06;5033009;28;20057;-78
2022/06/25 08:01:16;;;;;;;4.00;2.70;;;;;;;20.32;92.12;101095.81;5014860;28;20040;-78
2022/06/25 08:03:41;;;;;;;7.18;3.00;;;;;;;20.30;90.90;101099.47;5033182;28;20562;-77
2022/06/25 08:06:07;;;;;;;6.53;2.95;;;;;;;20.10;91.68;101105.63;5015452;28;20041;-77
2022/06/25 08:08:33;;;;;;;7.28;2.22;;;;;;;19.90;91.75;101101.88;5032568;28;20060;-77
2022/06/25 08:10:59;;;;;;;6.35;2.97;;;;;;;19.40;93.72;101105.75;5029134;28;20120;-77
2022/06/25 08:13:26;;;;;;;6.90;2.88;;;;;;;18.99;96.57;101104.44;4998413;28;20120;-81
2022/06/25 08:15:52;;;;;;;8.15;2.90;;;;;;;18.79;97.99;101106.75;5033631;28;20030;-88
2022/06/25 08:18:18;;;;;;;8.52;2.80;;;;;;;18.69;98.80;101119.13;5032086;28;20028;-88
2022/06/25 08:20:43;;;;;;;9.13;2.38;;;;;;;18.66;98.85;101108.66;5016148;28;20033;-90
2022/06/25 08:23:12;;;;;;;8.35;2.63;;;;;;;18.66;98.46;101114.03;4995955;28;20056;-89
2022/06/25 08:25:37;;;;;;;6.03;2.20;;;;;;;18.78;99.41;101117.59;5031225;28;20112;-89
2022/06/25 08:28:03;;;;;;;4.75;2.30;;;;;;;18.94;98.82;101122.69;5016264;28;20029;-88
2022/06/25 08:30:28;;;;;;;5.13;2.30;;;;;;;19.06;97.19;101115.53;5015647;28;20037;-89
2022/06/25 08:32:55;;;;;;;8.95;2.40;;;;;;;19.06;97.12;101121.75;4999431;28;20103;-89
2022/06/25 08:35:21;;;;;;;8.45;2.30;;;;;;;19.05;96.08;101122.72;5033556;28;20104;-87
2022/06/25 08:37:48;;;;;;;10.07;2.42;;;;;;;19.05;95.21;101127.25;5033747;28;20029;-89
2022/06/25 08:40:17;;;;;;;5.63;2.00;;;;;;;18.96;95.24;101118.06;5033678;28;20031;-80
2022/06/25 08:42:42;;;;;;;7.97;2.58;;;;;;;19.03;95.95;101127.38;5031811;28;20034;-81
2022/06/25 08:45:08;;;;;;;9.45;2.40;;;;;;;19.05;97.84;101140.66;5012015;28;20040;-81
2022/06/25 08:47:34;;;;;;;8.25;2.20;;;;;;;19.08;98.52;101143.09;5020455;28;20152;-81
2022/06/25 08:50:02;;;;;;;12.43;3.25;;;;;;;18.92;99.89;101143.44;5026463;28;20117;-81
2022/06/25 08:52:28;;;;;;;7.47;2.05;;;;;;;18.74;99.37;101142.94;5027891;28;20022;-82
2022/06/25 08:54:55;;;;;;;9.68;2.50;;;;;;;18.66;99.34;101140.84;5024281;28;20371;-83
2022/06/25 08:57:21;;;;;;;9.70;2.50;;;;;;;18.58;100.00;101146.78;5031505;28;20056;-82
2022/06/25 08:59:46;;;;;;;7.78;2.47;;;;;;;18.56;100.00;101146.03;5030348;28;20108;-82
2022/06/25 09:02:11;;;;;;;8.25;2.53;;;;;;;18.50;100.00;101141.09;5014155;28;20094;-81
2022/06/25 09:04:37;;;;;;;9.20;2.70;;;;;;;18.41;100.00;101147.16;5014106;28;20033;-82
2022/06/25 09:07:13;;;;;;;9.10;2.83;;;;;;;18.43;100.00;101151.44;5011704;28;20053;-83
2022/06/25 09:09:39;;;;;;;9.30;2.60;;;;;;;18.48;100.00;101140.38;5044913;28;20508;-79
2022/06/25 09:12:08;;;;;;;8.52;2.78;;;;;;;18.53;100.00;101142.72;5014743;28;20113;-82
2022/06/25 09:14:35;;;;;;;8.07;2.67;;;;;;;18.61;100.00;101146.53;5026062;28;20025;-81
2022/06/25 09:17:05;;;;;;;12.38;2.85;;;;;;;18.60;100.00;101155.53;5030507;28;20028;-81
2022/06/25 09:19:32;;;;;;;7.72;2.67;;;;;;;18.65;100.00;101149.84;5032108;28;20111;-80
2022/06/25 09:21:59;;;;;;;9.43;2.72;;;;;;;18.73;100.00;101160.00;5032070;28;20104;-83
2022/06/25 09:24:43;;;;;;;8.10;2.60;;;;;;;18.65;100.00;101155.22;5030697;28;20116;-83
2022/06/25 09:27:09;;;;;;;8.63;2.63;;;;;;;18.47;100.00;101157.44;5034964;28;20029;-83
2022/06/25 09:29:45;;;;;;;7.93;2.75;;;;;;;18.37;100.00;101159.91;5032464;28;20042;-83
2022/06/25 09:32:11;;;;;;;9.20;3.05;;;;;;;18.40;100.00;101158.84;5019130;28;20025;-83
2022/06/25 09:34:38;;;;;;;7.60;2.30;;;;;;;18.42;100.00;101168.47;5005499;28;20482;-83
2022/06/25 09:37:26;;;;;;;9.23;2.80;;;;;;;18.44;100.00;101166.56;5029121;28;20021;-82
2022/06/25 09:39:54;;;;;;;8.75;2.33;;;;;;;18.29;100.00;101168.53;5030728;28;20488;-85
2022/06/25 09:42:32;;;;;;;5.80;1.98;;;;;;;18.21;100.00;101170.03;5031075;28;20025;-85
2022/06/25 09:45:11;;;;;;;7.68;2.25;;;;;;;18.12;100.00;101175.09;5030315;28;20029;-85
2022/06/25 09:47:43;;;;;;;5.57;2.10;;;;;;;18.20;100.00;101177.22;5031934;28;20079;-85
2022/06/25 09:50:13;;;;;;;10.18;2.20;;;;;;;18.27;100.00;101167.75;5028867;28;20117;-85
2022/06/25 09:52:49;;;;;;;7.22;2.15;;;;;;;18.40;100.00;101175.81;5030412;28;20032;-84
2022/06/25 09:55:14;;;;;;;6.47;2.13;;;;;;;18.56;100.00;101180.88;5030275;28;20036;-85
2022/06/25 09:57:41;;;;;;;6.30;2.40;;;;;;;18.56;100.00;101182.72;4997381;28;20041;-85
2022/06/25 10:00:07;;;;;;;7.40;2.40;;;;;;;18.45;100.00;101184.38;5031592;28;20033;-85
2022/06/25 10:02:33;;;;;;;7.70;2.60;;;;;;;18.56;100.00;101191.63;5028218;28;20088;-85
2022/06/25 10:05:03;;;;;;;7.15;2.70;;;;;;;18.59;100.00;101187.84;5004349;28;20029;-85
2022/06/25 10:10:22;;;;;;;9.52;3.20;;;;;;;18.75;100.00;101184.91;5029545;28;20040;-85
2022/06/25 10:12:49;;;;;;;7.75;2.63;;;;;;;19.03;100.00;101181.06;5035437;28;20021;-84
2022/06/25 10:15:17;;;;;;;7.43;3.08;;;;;;;19.40;100.00;101178.25;5033777;28;20080;-83
2022/06/25 10:17:48;;;;;;;8.98;2.88;;;;;;;19.86;98.06;101175.66;5022636;28;20026;-83
2022/06/25 10:20:16;;;;;;;9.10;2.80;;;;;;;20.68;100.00;101182.53;5032689;28;20018;-83
2022/06/25 10:22:43;;;;;;;8.30;2.50;;;;;;;21.44;91.75;101171.72;5034621;28;20025;-84
2022/06/25 10:25:12;;;;;;;7.22;2.50;;;;;;;21.91;89.66;101188.34;5033684;28;20385;-84
2022/06/25 10:27:48;;;;;;;8.52;2.97;;;;;;;23.13;85.23;101179.25;5039898;28;20021;-85
2022/06/25 10:30:34;;;;;;;7.72;2.75;;;;;;;24.60;83.73;101178.81;5033861;28;20323;-85
2022/06/25 10:32:59;;;;;;;9.63;2.72;;;;;;;24.83;77.30;101175.69;5035827;28;20021;-83
2022/06/25 10:35:31;;;;;;;8.77;2.80;;;;;;;25.26;70.01;101181.34;5013615;28;20029;-85
2022/06/25 10:37:59;;;;;;;;;;;;;;;25.39;70.38;101175.53;5024819;28;20120;-85
2022/06/25 10:40:25;;;;;;;6.43;2.22;;;;;;;25.85;70.63;101182.44;5034023;28;19919;-83
2022/06/25 10:42:59;;;;;;;7.20;2.10;;;;;;;26.19;67.77;101183.50;5034030;28;20021;-83
2022/06/25 10:45:25;;;;;;;7.20;2.83;;;;;;;26.38;68.69;101186.94;5033894;28;20156;-83
2022/06/25 10:47:52;;;;;;;6.45;2.20;;;;;;;26.30;67.54;101185.03;5038460;28;20056;-92
2022/06/25 10:50:20;;;;;;;8.35;2.90;;;;;;;25.62;66.73;101192.13;5038180;28;20469;-92
2022/06/25 10:53:01;;;;;;;7.78;3.17;;;;;;;24.77;71.65;101181.72;5037118;28;20037;-92
2022/06/25 10:55:26;;;;;;;7.68;3.33;;;;;;;24.57;72.85;101181.00;5036586;28;20025;-92
2022/06/25 10:58:09;;;;;;;5.93;2.85;;;;;;;24.76;68.47;101180.88;5020883;28;20060;-92
2022/06/25 11:00:52;;;;;;;8.02;3.30;;;;;;;24.76;67.39;101186.28;5021213;28;20127;-93
2022/06/25 11:03:38;;;;;;;7.18;3.15;;;;;;;24.64;71.27;101182.97;5041668;28;20025;-89
2022/06/25 11:06:19;;;;;;;5.85;2.75;;;;;;;25.27;67.82;101180.31;5033859;28;20071;-82
2022/06/25 11:08:45;;;;;;;7.57;2.85;;;;;;;25.55;70.47;101186.50;5032790;28;20029;-81
2022/06/25 11:11:11;;;;;;;6.30;3.00;;;;;;;25.78;72.08;101188.66;5016489;28;20036;-82
2022/06/25 11:13:41;;;;;;;8.82;3.20;;;;;;;26.76;65.15;101190.97;5032612;28;20037;-83
2022/06/25 11:16:13;;;;;;;7.03;3.38;;;;;;;27.22;58.54;101193.22;4999503;28;20467;-82
2022/06/25 11:18:53;;;;;;;9.50;3.42;;;;;;;26.91;56.84;101188.47;5032436;28;20096;-85
2022/06/25 11:21:35;;;;;;;4.80;2.97;;;;;;;27.23;54.38;101186.78;5032813;28;20036;-82
2022/06/25 11:24:10;;;;;;;5.13;2.88;;;;;;;26.73;54.52;101190.47;5032837;28;20119;-84
2022/06/25 11:29:23;;;;;;;7.32;3.53;;;;;;;24.89;62.33;101180.50;5026976;28;20418;-82
2022/06/25 11:31:50;;;;;;;5.80;3.22;;;;;;;25.14;64.97;101186.13;5033439;28;20021;-84
2022/06/25 11:34:17;;;;;;;4.80;2.90;;;;;;;24.87;62.75;101187.91;5015687;28;20028;-83
2022/06/25 11:36:43;;;;;;;6.95;3.55;;;;;;;24.66;63.47;101182.81;5032019;28;20033;-81